createdAt,value
2022-11-21T00:00:00.213Z,997.24
2022-11-21T00:01:54.474Z,997.27
2022-11-21T00:02:54.391Z,997.19
2022-11-21T00:04:48.129Z,997.15
2022-11-21T00:05:48.119Z,997.20
2022-11-21T00:07:42.283Z,997.10
2022-11-21T00:08:42.238Z,997.16
2022-11-21T00:10:36.427Z,997.16
2022-11-21T00:11:36.415Z,997.10
2022-11-21T00:13:30.716Z,997.15
2022-11-21T00:14:30.693Z,997.15
2022-11-21T00:16:24.806Z,997.12
2022-11-21T00:17:24.788Z,997.11
2022-11-21T00:19:18.855Z,997.17
2022-11-21T00:20:18.848Z,997.11
2022-11-21T00:22:12.904Z,997.13
2022-11-21T00:23:12.881Z,997.22
2022-11-21T00:25:07.214Z,997.19
2022-11-21T00:26:07.205Z,997.21
2022-11-21T00:28:01.275Z,997.27
2022-11-21T00:29:01.256Z,997.27
2022-11-21T00:30:55.558Z,997.23
2022-11-21T00:31:55.548Z,997.24
2022-11-21T00:33:49.757Z,997.19
2022-11-21T00:34:49.732Z,997.18
2022-11-21T00:36:43.477Z,997.22
2022-11-21T00:37:43.460Z,997.21
2022-11-21T00:39:37.567Z,997.24
2022-11-21T00:40:37.546Z,997.20
2022-11-21T00:42:31.621Z,997.17
2022-11-21T00:43:31.595Z,997.19
2022-11-21T00:45:25.717Z,997.22
2022-11-21T00:46:25.703Z,997.21
2022-11-21T00:48:19.762Z,997.16
2022-11-21T00:49:19.743Z,997.15
2022-11-21T00:51:13.857Z,997.23
2022-11-21T00:52:13.845Z,997.19
2022-11-21T00:54:07.923Z,997.14
2022-11-21T00:55:07.901Z,997.17
2022-11-21T00:57:02.201Z,997.11
2022-11-21T00:58:02.193Z,997.09
2022-11-21T00:59:56.386Z,997.09
2022-11-21T01:00:56.411Z,997.03
2022-11-21T01:02:50.458Z,997.01
2022-11-21T01:03:50.439Z,997.03
2022-11-21T01:05:44.507Z,997.06
2022-11-21T01:06:44.506Z,997.02
2022-11-21T01:08:38.577Z,996.96
2022-11-21T01:09:38.560Z,997.02
2022-11-21T01:11:32.630Z,996.99
2022-11-21T01:12:32.616Z,996.95
2022-11-21T01:14:27.048Z,997.02
2022-11-21T01:15:26.689Z,997.01
2022-11-21T01:17:20.774Z,997.03
2022-11-21T01:18:20.764Z,997.04
2022-11-21T01:20:14.962Z,997.02
2022-11-21T01:21:14.941Z,997.08
2022-11-21T01:23:09.655Z,997.05
2022-11-21T01:24:09.591Z,997.09
2022-11-21T01:26:03.713Z,997.10
2022-11-21T01:27:03.679Z,997.15
2022-11-21T01:28:57.762Z,997.12
2022-11-21T01:29:57.745Z,997.14
2022-11-21T01:31:51.838Z,997.18
2022-11-21T01:32:51.821Z,997.15
2022-11-21T01:34:45.971Z,997.17
2022-11-21T01:35:45.947Z,997.21
2022-11-21T01:37:40.038Z,997.21
2022-11-21T01:38:40.014Z,997.19
2022-11-21T01:40:35.099Z,997.24
2022-11-21T01:41:35.091Z,997.25
2022-11-21T01:43:29.174Z,997.25
2022-11-21T01:44:29.454Z,997.24
2022-11-21T01:46:23.259Z,997.25
2022-11-21T01:47:23.247Z,997.20
2022-11-21T01:49:17.329Z,997.25
2022-11-21T01:50:17.311Z,997.23
2022-11-21T01:52:11.508Z,997.23
2022-11-21T01:53:11.490Z,997.25
2022-11-21T01:55:05.735Z,997.22
2022-11-21T01:56:05.716Z,997.23
2022-11-21T01:57:59.792Z,997.26
2022-11-21T01:58:59.778Z,997.21
2022-11-21T02:00:53.952Z,997.22
2022-11-21T02:01:53.866Z,997.21
2022-11-21T02:03:47.973Z,997.16
2022-11-21T02:04:47.947Z,997.21
2022-11-21T02:06:42.006Z,997.11
2022-11-21T02:07:42.028Z,997.14
2022-11-21T02:09:36.067Z,997.14
2022-11-21T02:10:36.046Z,997.17
2022-11-21T02:12:30.104Z,997.14
2022-11-21T02:13:30.090Z,997.15
2022-11-21T02:15:24.205Z,997.20
2022-11-21T02:16:24.180Z,997.17
2022-11-21T02:18:18.478Z,997.16
2022-11-21T02:19:18.486Z,997.17
2022-11-21T02:21:12.743Z,997.15
2022-11-21T02:22:12.724Z,997.19
2022-11-21T02:24:06.884Z,997.18
2022-11-21T02:25:06.872Z,997.21
2022-11-21T02:27:00.969Z,997.17
2022-11-21T02:28:00.955Z,997.18
2022-11-21T02:29:54.902Z,997.16
2022-11-21T02:30:54.878Z,997.22
2022-11-21T02:32:49.024Z,997.20
2022-11-21T02:33:49.008Z,997.21
2022-11-21T02:35:43.207Z,997.24
2022-11-21T02:36:43.189Z,997.27
2022-11-21T02:38:37.260Z,997.24
2022-11-21T02:39:37.241Z,997.25
2022-11-21T02:41:31.339Z,997.26
2022-11-21T02:42:31.328Z,997.25
2022-11-21T02:44:25.797Z,997.24
2022-11-21T02:45:25.423Z,997.19
2022-11-21T02:47:19.665Z,997.22
2022-11-21T02:48:19.646Z,997.25
2022-11-21T02:50:13.738Z,997.25
2022-11-21T02:51:13.719Z,997.22
2022-11-21T02:53:07.816Z,997.25
2022-11-21T02:54:07.805Z,997.28
2022-11-21T02:56:01.973Z,997.23
2022-11-21T02:57:01.945Z,997.28
2022-11-21T02:58:56.048Z,997.30
2022-11-21T02:59:56.027Z,997.30
2022-11-21T03:01:50.112Z,997.30
2022-11-21T03:02:50.100Z,997.29
2022-11-21T03:04:44.221Z,997.32
2022-11-21T03:05:44.198Z,997.33
2022-11-21T03:07:38.321Z,997.31
2022-11-21T03:08:38.268Z,997.31
2022-11-21T03:10:32.490Z,997.33
2022-11-21T03:11:32.466Z,997.34
2022-11-21T03:13:26.679Z,997.35
2022-11-21T03:14:26.903Z,997.34
2022-11-21T03:16:21.086Z,997.40
2022-11-21T03:17:21.062Z,997.37
2022-11-21T03:19:15.157Z,997.38
2022-11-21T03:20:15.137Z,997.35
2022-11-21T03:22:09.209Z,997.39
2022-11-21T03:23:09.191Z,997.38
2022-11-21T03:25:03.289Z,997.41
2022-11-21T03:26:03.266Z,997.38
2022-11-21T03:27:57.440Z,997.42
2022-11-21T03:28:57.429Z,997.38
2022-11-21T03:30:51.504Z,997.37
2022-11-21T03:31:51.484Z,997.34
2022-11-21T03:33:45.602Z,997.40
2022-11-21T03:34:45.590Z,997.44
2022-11-21T03:36:39.333Z,997.42
2022-11-21T03:37:39.312Z,997.42
2022-11-21T03:39:33.448Z,997.44
2022-11-21T03:40:33.426Z,997.44
2022-11-21T03:42:50.355Z,997.44
2022-11-21T03:43:27.474Z,997.42
2022-11-21T03:45:21.593Z,997.42
2022-11-21T03:46:21.572Z,997.40
2022-11-21T03:48:15.750Z,997.43
2022-11-21T03:49:15.740Z,997.39
2022-11-21T03:51:09.831Z,997.44
2022-11-21T03:52:09.813Z,997.41
2022-11-21T03:54:04.884Z,997.44
2022-11-21T03:55:04.858Z,997.41
2022-11-21T03:56:58.953Z,997.43
2022-11-21T03:57:58.940Z,997.44
2022-11-21T03:59:53.013Z,997.44
2022-11-21T04:00:52.988Z,997.47
2022-11-21T04:02:47.062Z,997.39
2022-11-21T04:03:47.051Z,997.42
2022-11-21T04:05:41.201Z,997.42
2022-11-21T04:06:41.176Z,997.41
2022-11-21T04:08:37.442Z,997.38
2022-11-21T04:09:37.423Z,997.38
2022-11-21T04:11:31.505Z,997.39
2022-11-21T04:12:31.485Z,997.38
2022-11-21T04:14:25.974Z,997.41
2022-11-21T04:15:25.525Z,997.42
2022-11-21T04:17:19.254Z,997.46
2022-11-21T04:18:19.240Z,997.46
2022-11-21T04:20:13.347Z,997.48
2022-11-21T04:21:13.328Z,997.43
2022-11-21T04:23:07.525Z,997.46
2022-11-21T04:24:07.510Z,997.44
2022-11-21T04:26:01.248Z,997.44
2022-11-21T04:27:01.229Z,997.40
2022-11-21T04:28:56.318Z,997.46
2022-11-21T04:29:56.297Z,997.49
2022-11-21T04:31:51.417Z,997.45
2022-11-21T04:32:51.391Z,997.44
2022-11-21T04:34:45.636Z,997.45
2022-11-21T04:35:45.615Z,997.43
2022-11-21T04:37:39.918Z,997.42
2022-11-21T04:38:39.897Z,997.40
2022-11-21T04:40:33.865Z,997.43
2022-11-21T04:41:33.842Z,997.41
2022-11-21T04:43:27.994Z,997.43
2022-11-21T04:44:28.289Z,997.42
2022-11-21T04:46:22.126Z,997.47
2022-11-21T04:47:22.106Z,997.41
2022-11-21T04:49:15.859Z,997.42
2022-11-21T04:50:15.845Z,997.40
2022-11-21T04:52:09.970Z,997.35
2022-11-21T04:53:09.956Z,997.38
2022-11-21T04:55:04.017Z,997.47
2022-11-21T04:56:03.995Z,997.48
2022-11-21T04:57:58.128Z,997.48
2022-11-21T04:58:58.117Z,997.44
2022-11-21T05:02:09.846Z,997.42
2022-11-21T05:03:09.821Z,997.47
2022-11-21T05:05:04.145Z,997.43
2022-11-21T05:06:04.118Z,997.44
2022-11-21T05:07:58.187Z,997.49
2022-11-21T05:08:58.177Z,997.50
2022-11-21T05:10:52.316Z,997.49
2022-11-21T05:11:52.280Z,997.49
2022-11-21T05:13:46.521Z,997.46
2022-11-21T05:14:46.486Z,997.45
2022-11-21T05:16:40.627Z,997.44
2022-11-21T05:17:40.602Z,997.42
2022-11-21T05:19:34.381Z,997.41
2022-11-21T05:20:36.854Z,997.41
2022-11-21T05:22:28.439Z,997.34
2022-11-21T05:23:28.430Z,997.34
2022-11-21T05:25:22.568Z,997.34
2022-11-21T05:26:22.543Z,997.32
2022-11-21T05:28:16.710Z,997.29
2022-11-21T05:29:16.696Z,997.26
2022-11-21T05:31:10.782Z,997.25
2022-11-21T05:32:10.762Z,997.28
2022-11-21T05:34:04.503Z,997.22
2022-11-21T05:35:04.491Z,997.18
2022-11-21T05:36:58.594Z,997.19
2022-11-21T05:37:58.571Z,997.18
2022-11-21T05:39:52.756Z,997.23
2022-11-21T05:40:52.725Z,997.23
2022-11-21T05:42:46.631Z,997.26
2022-11-21T05:43:46.617Z,997.26
2022-11-21T05:45:40.717Z,997.29
2022-11-21T05:46:40.687Z,997.31
2022-11-21T05:48:34.718Z,997.34
2022-11-21T05:49:34.703Z,997.34
2022-11-21T05:51:28.944Z,997.34
2022-11-21T05:52:28.925Z,997.35
2022-11-21T05:54:22.646Z,997.36
2022-11-21T05:55:22.639Z,997.36
2022-11-21T05:57:16.710Z,997.40
2022-11-21T05:58:16.692Z,997.39
2022-11-21T06:00:10.824Z,997.33
2022-11-21T06:01:10.804Z,997.32
2022-11-21T06:03:04.974Z,997.36
2022-11-21T06:04:04.826Z,997.37
2022-11-21T06:05:59.904Z,997.30
2022-11-21T06:06:59.953Z,997.30
2022-11-21T06:08:53.622Z,997.30
2022-11-21T06:09:53.609Z,997.34
2022-11-21T06:11:47.704Z,997.35
2022-11-21T06:12:47.682Z,997.37
2022-11-21T06:14:41.795Z,997.37
2022-11-21T06:15:41.782Z,997.35
2022-11-21T06:17:35.834Z,997.37
2022-11-21T06:18:35.817Z,997.35
2022-11-21T06:20:29.919Z,997.33
2022-11-21T06:21:29.904Z,997.35
2022-11-21T06:23:24.099Z,997.28
2022-11-21T06:24:24.084Z,997.30
2022-11-21T06:26:18.227Z,997.27
2022-11-21T06:27:18.196Z,997.27
2022-11-21T06:29:12.278Z,997.27
2022-11-21T06:30:12.265Z,997.25
2022-11-21T06:32:06.475Z,997.21
2022-11-21T06:33:06.459Z,997.18
2022-11-21T06:35:00.595Z,997.16
2022-11-21T06:36:00.579Z,997.14
2022-11-21T06:37:55.067Z,997.12
2022-11-21T06:38:54.749Z,997.15
2022-11-21T06:40:48.792Z,997.15
2022-11-21T06:41:48.779Z,997.14
2022-11-21T06:43:42.962Z,997.19
2022-11-21T06:44:42.953Z,997.16
2022-11-21T06:46:37.115Z,997.16
2022-11-21T06:47:37.095Z,997.18
2022-11-21T06:49:31.172Z,997.18
2022-11-21T06:50:31.160Z,997.24
2022-11-21T06:52:25.239Z,997.28
2022-11-21T06:53:25.212Z,997.27
2022-11-21T06:55:19.285Z,997.35
2022-11-21T06:56:19.270Z,997.31
2022-11-21T06:58:13.421Z,997.32
2022-11-21T06:59:13.366Z,997.28
2022-11-21T07:01:07.716Z,997.29
2022-11-21T07:02:07.628Z,997.29
2022-11-21T07:04:01.499Z,997.28
2022-11-21T07:05:01.485Z,997.29
2022-11-21T07:06:55.651Z,997.22
2022-11-21T07:07:55.624Z,997.25
2022-11-21T07:09:50.137Z,997.24
2022-11-21T07:11:17.762Z,997.32
2022-11-21T07:12:43.723Z,997.31
2022-11-21T07:13:43.705Z,997.30
2022-11-21T07:15:37.799Z,997.30
2022-11-21T07:16:37.784Z,997.28
2022-11-21T07:18:31.876Z,997.24
2022-11-21T07:19:31.856Z,997.27
2022-11-21T07:21:25.913Z,997.20
2022-11-21T07:22:25.898Z,997.21
2022-11-21T07:24:19.966Z,997.20
2022-11-21T07:25:19.948Z,997.27
2022-11-21T07:27:14.145Z,997.19
2022-11-21T07:28:14.115Z,997.25
2022-11-21T07:30:08.237Z,997.21
2022-11-21T07:31:13.206Z,997.21
2022-11-21T07:33:02.454Z,997.23
2022-11-21T07:34:02.436Z,997.23
2022-11-21T07:35:56.245Z,997.20
2022-11-21T07:36:56.234Z,997.19
2022-11-21T07:38:50.429Z,997.22
2022-11-21T07:39:50.414Z,997.24
2022-11-21T07:41:44.695Z,997.23
2022-11-21T07:42:44.667Z,997.24
2022-11-21T07:44:38.820Z,997.22
2022-11-21T07:45:38.808Z,997.27
2022-11-21T07:47:32.919Z,997.28
2022-11-21T07:48:32.898Z,997.30
2022-11-21T07:50:27.072Z,997.28
2022-11-21T07:51:27.023Z,997.27
2022-11-21T07:53:21.191Z,997.28
2022-11-21T07:54:21.168Z,997.29
2022-11-21T07:56:15.296Z,997.26
2022-11-21T07:57:15.267Z,997.26
2022-11-21T07:59:09.540Z,997.25
2022-11-21T08:00:09.520Z,997.29
2022-11-21T08:02:03.725Z,997.23
2022-11-21T08:03:03.616Z,997.23
2022-11-21T08:04:57.689Z,997.24
2022-11-21T08:05:57.656Z,997.21
2022-11-21T08:07:51.713Z,997.22
2022-11-21T08:08:51.692Z,997.19
2022-11-21T08:10:45.792Z,997.10
2022-11-21T08:11:45.777Z,997.06
2022-11-21T08:13:39.881Z,996.96
2022-11-21T08:14:39.859Z,997.00
2022-11-21T08:16:33.930Z,997.02
2022-11-21T08:17:33.920Z,997.06
2022-11-21T08:19:28.223Z,997.08
2022-11-21T08:20:28.033Z,997.09
2022-11-21T08:22:22.273Z,997.12
2022-11-21T08:23:22.116Z,997.14
2022-11-21T08:25:16.210Z,997.16
2022-11-21T08:26:16.201Z,997.16
2022-11-21T08:28:09.946Z,997.19
2022-11-21T08:29:09.923Z,997.21
2022-11-21T08:31:04.018Z,997.17
2022-11-21T08:32:04.006Z,997.20
2022-11-21T08:33:58.098Z,997.23
2022-11-21T08:34:58.102Z,997.24
2022-11-21T08:36:51.830Z,997.25
2022-11-21T08:37:51.798Z,997.22
2022-11-21T08:39:45.861Z,997.18
2022-11-21T08:40:45.847Z,997.16
2022-11-21T08:42:39.908Z,997.18
2022-11-21T08:43:39.888Z,997.18
2022-11-21T08:45:34.032Z,997.18
2022-11-21T08:46:34.016Z,997.18
2022-11-21T08:48:28.102Z,997.18
2022-11-21T08:49:28.078Z,997.19
2022-11-21T08:51:22.350Z,997.13
2022-11-21T08:52:22.329Z,997.12
2022-11-21T08:54:16.428Z,997.08
2022-11-21T08:55:16.403Z,997.08
2022-11-21T08:57:10.478Z,997.08
2022-11-21T08:58:10.456Z,997.10
2022-11-21T09:00:04.586Z,997.06
2022-11-21T09:01:04.554Z,997.09
2022-11-21T09:02:58.664Z,997.11
2022-11-21T09:03:58.637Z,997.09
2022-11-21T09:05:52.710Z,997.11
2022-11-21T09:06:52.687Z,997.05
2022-11-21T09:08:47.091Z,996.99
2022-11-21T09:09:46.866Z,997.00
2022-11-21T09:11:41.013Z,997.01
2022-11-21T09:12:41.002Z,997.00
2022-11-21T09:14:35.215Z,996.99
2022-11-21T09:15:35.194Z,996.98
2022-11-21T09:17:30.374Z,996.94
2022-11-21T09:18:30.353Z,996.95
2022-11-21T09:20:24.542Z,996.87
2022-11-21T09:21:24.542Z,996.86
2022-11-21T09:23:18.666Z,996.91
2022-11-21T09:24:18.644Z,996.87
2022-11-21T09:26:13.708Z,996.83
2022-11-21T09:27:13.684Z,996.76
2022-11-21T09:29:07.792Z,996.90
2022-11-21T09:30:07.771Z,996.91
2022-11-21T09:32:01.623Z,996.87
2022-11-21T09:33:01.590Z,996.89
2022-11-21T09:34:56.711Z,996.83
2022-11-21T09:35:56.689Z,996.89
2022-11-21T09:37:50.761Z,996.90
2022-11-21T09:38:50.743Z,996.86
2022-11-21T09:40:44.806Z,996.89
2022-11-21T09:41:44.795Z,996.88
2022-11-21T09:43:38.877Z,996.85
2022-11-21T09:44:38.857Z,996.84
2022-11-21T09:46:33.097Z,996.85
2022-11-21T09:47:33.089Z,996.87
2022-11-21T09:49:27.490Z,996.88
2022-11-21T09:50:27.126Z,996.89
2022-11-21T09:52:21.263Z,996.90
2022-11-21T09:53:21.258Z,996.84
2022-11-21T09:55:15.367Z,996.81
2022-11-21T09:56:15.354Z,996.87
2022-11-21T09:58:09.131Z,996.85
2022-11-21T09:59:09.114Z,996.91
2022-11-21T10:01:03.346Z,996.87
2022-11-21T10:02:03.259Z,996.88
2022-11-21T10:03:57.421Z,996.84
2022-11-21T10:04:57.370Z,996.84
2022-11-21T10:06:51.593Z,996.80
2022-11-21T10:07:51.675Z,996.72
2022-11-21T10:09:45.792Z,996.66
2022-11-21T10:10:45.766Z,996.66
2022-11-21T10:12:40.995Z,996.64
2022-11-21T10:13:40.985Z,996.50
2022-11-21T10:15:35.071Z,996.42
2022-11-21T10:16:38.045Z,996.45
2022-11-21T10:18:30.139Z,996.46
2022-11-21T10:19:30.119Z,996.47
2022-11-21T10:21:24.230Z,996.46
2022-11-21T10:22:24.220Z,996.42
2022-11-21T10:24:18.300Z,996.41
2022-11-21T10:25:21.668Z,996.42
2022-11-21T10:27:12.370Z,996.46
2022-11-21T10:28:12.365Z,996.40
2022-11-21T10:30:06.425Z,996.37
2022-11-21T10:31:06.618Z,996.30
2022-11-21T10:33:00.527Z,996.31
2022-11-21T10:34:00.512Z,996.29
2022-11-21T10:35:54.336Z,996.20
2022-11-21T10:36:54.330Z,996.21
2022-11-21T10:38:48.399Z,996.18
2022-11-21T10:39:48.385Z,996.19
2022-11-21T10:41:42.527Z,996.25
2022-11-21T10:42:42.520Z,996.22
2022-11-21T10:44:37.760Z,996.22
2022-11-21T10:45:37.743Z,996.08
2022-11-21T10:47:31.865Z,996.05
2022-11-21T10:48:31.848Z,996.05
2022-11-21T10:51:43.592Z,996.02
2022-11-21T10:52:43.575Z,995.96
2022-11-21T10:54:37.679Z,995.94
2022-11-21T10:55:37.651Z,995.91
2022-11-21T10:57:31.837Z,995.87
2022-11-21T10:58:31.826Z,995.88
2022-11-21T11:00:25.928Z,995.84
2022-11-21T11:01:26.031Z,995.85
2022-11-21T11:03:19.958Z,995.81
2022-11-21T11:04:27.864Z,995.79
2022-11-21T11:06:14.021Z,995.91
2022-11-21T11:07:14.049Z,995.94
2022-11-21T11:09:08.096Z,995.79
2022-11-21T11:10:08.077Z,995.94
2022-11-21T11:12:02.133Z,995.80
2022-11-21T11:13:05.138Z,995.98
2022-11-21T11:14:56.314Z,995.85
2022-11-21T11:15:56.291Z,995.78
2022-11-21T11:17:50.422Z,995.96
2022-11-21T11:18:50.368Z,995.98
2022-11-21T11:20:44.504Z,995.67
2022-11-21T11:21:44.496Z,995.68
2022-11-21T11:23:38.675Z,995.53
2022-11-21T11:24:38.655Z,995.54
2022-11-21T11:26:32.831Z,995.42
2022-11-21T11:27:32.822Z,995.40
2022-11-21T11:29:27.235Z,995.66
2022-11-21T11:30:26.911Z,995.49
2022-11-21T11:32:22.052Z,995.28
2022-11-21T11:33:21.139Z,995.49
2022-11-21T11:35:15.267Z,995.40
2022-11-21T11:36:15.279Z,995.36
2022-11-21T11:38:09.538Z,995.37
2022-11-21T11:39:09.533Z,995.29
2022-11-21T11:41:03.624Z,995.22
2022-11-21T11:42:03.590Z,995.26
2022-11-21T11:43:57.670Z,995.24
2022-11-21T11:44:57.654Z,995.19
2022-11-21T11:46:51.798Z,995.15
2022-11-21T11:47:54.631Z,995.13
2022-11-21T11:49:46.023Z,995.12
2022-11-21T11:50:46.005Z,995.14
2022-11-21T11:52:40.137Z,995.05
2022-11-21T11:53:40.134Z,995.00
2022-11-21T11:55:34.262Z,994.96
2022-11-21T11:56:34.255Z,994.99
2022-11-21T11:59:19.151Z,994.98
2022-11-21T12:00:19.133Z,994.94
2022-11-21T12:02:13.260Z,994.93
2022-11-21T12:03:13.211Z,994.87
2022-11-21T12:05:07.339Z,994.86
2022-11-21T12:06:09.455Z,994.86
2022-11-21T12:09:02.491Z,994.97
2022-11-21T12:10:58.125Z,994.97
2022-11-21T12:11:56.671Z,995.02
2022-11-21T12:13:50.908Z,995.08
2022-11-21T12:14:50.891Z,994.96
2022-11-21T12:16:44.975Z,994.97
2022-11-21T12:17:44.968Z,994.95
2022-11-21T12:19:39.045Z,994.92
2022-11-21T12:20:39.042Z,994.91
2022-11-21T12:22:34.181Z,994.86
2022-11-21T12:23:34.157Z,994.84
2022-11-21T12:25:28.326Z,994.76
2022-11-21T12:26:28.306Z,994.68
2022-11-21T12:28:22.403Z,994.56
2022-11-21T12:29:22.395Z,994.49
2022-11-21T12:31:16.474Z,994.44
2022-11-21T12:32:16.461Z,994.42
2022-11-21T12:34:10.604Z,994.37
2022-11-21T12:35:10.517Z,994.32
2022-11-21T12:37:04.580Z,994.28
2022-11-21T12:38:04.570Z,994.32
2022-11-21T12:39:58.697Z,994.23
2022-11-21T12:40:59.158Z,994.22
2022-11-21T12:42:53.812Z,994.19
2022-11-21T12:43:57.550Z,994.14
2022-11-21T12:45:47.872Z,994.12
2022-11-21T12:46:47.854Z,994.11
2022-11-21T12:48:41.612Z,994.13
2022-11-21T12:49:41.603Z,994.11
2022-11-21T12:51:35.810Z,994.11
2022-11-21T12:52:35.792Z,994.09
2022-11-21T12:54:29.972Z,994.04
2022-11-21T12:55:35.183Z,994.03
2022-11-21T12:57:24.035Z,993.98
2022-11-21T12:58:24.026Z,994.00
2022-11-21T13:00:18.198Z,993.97
2022-11-21T13:01:21.352Z,993.99
2022-11-21T13:03:12.256Z,993.91
2022-11-21T13:04:12.246Z,993.90
2022-11-21T13:06:06.368Z,993.87
2022-11-21T13:07:06.442Z,993.87
2022-11-21T13:09:01.436Z,993.77
2022-11-21T13:10:01.428Z,993.71
2022-11-21T13:11:55.556Z,993.71
2022-11-21T13:12:55.547Z,993.66
2022-11-21T13:14:49.630Z,993.65
2022-11-21T13:15:49.742Z,993.66
2022-11-21T13:17:43.691Z,993.69
2022-11-21T13:18:43.678Z,993.65
2022-11-21T13:20:37.792Z,993.64
2022-11-21T13:21:40.713Z,993.71
2022-11-21T13:23:31.874Z,993.68
2022-11-21T13:24:31.865Z,993.66
2022-11-21T13:26:27.006Z,993.63
2022-11-21T13:27:26.980Z,993.58
2022-11-21T13:29:20.710Z,993.59
2022-11-21T13:30:20.701Z,993.55
2022-11-21T13:32:14.875Z,993.57
2022-11-21T13:33:18.548Z,993.51
2022-11-21T13:35:13.557Z,993.39
2022-11-21T13:36:08.976Z,993.37
2022-11-21T13:38:04.127Z,993.32
2022-11-21T13:39:04.086Z,993.24
2022-11-21T13:40:58.996Z,993.19
2022-11-21T13:41:58.217Z,993.15
2022-11-21T13:43:54.351Z,993.13
2022-11-21T13:44:54.343Z,993.12
2022-11-21T13:46:48.092Z,993.10
2022-11-21T13:47:55.790Z,993.07
2022-11-21T13:49:42.180Z,993.09
2022-11-21T13:50:42.162Z,993.01
2022-11-21T13:52:36.218Z,992.93
2022-11-21T13:53:36.206Z,992.95
2022-11-21T13:55:30.313Z,992.92
2022-11-21T13:56:30.296Z,992.95
2022-11-21T13:58:24.415Z,992.95
2022-11-21T13:59:24.403Z,992.88
2022-11-21T14:01:18.505Z,992.85
2022-11-21T14:02:18.428Z,992.81
2022-11-21T14:04:12.518Z,992.77
2022-11-21T14:05:12.505Z,992.67
2022-11-21T14:07:06.778Z,992.61
2022-11-21T14:08:06.765Z,992.63
2022-11-21T14:10:00.772Z,992.57
2022-11-21T14:11:00.740Z,992.50
2022-11-21T14:12:54.860Z,992.46
2022-11-21T14:13:54.844Z,992.47
2022-11-21T14:15:49.026Z,992.37
2022-11-21T14:16:49.003Z,992.34
2022-11-21T14:18:43.097Z,992.35
2022-11-21T14:19:43.085Z,992.34
2022-11-21T14:21:37.143Z,992.30
2022-11-21T14:22:42.403Z,992.26
2022-11-21T14:24:31.198Z,992.22
2022-11-21T14:25:31.188Z,992.19
2022-11-21T14:27:25.283Z,992.18
2022-11-21T14:28:25.252Z,992.16
2022-11-21T14:30:19.375Z,992.23
2022-11-21T14:31:19.370Z,992.17
2022-11-21T14:33:13.472Z,992.13
2022-11-21T14:34:13.463Z,992.16
2022-11-21T14:36:07.357Z,992.13
2022-11-21T14:37:07.333Z,992.15
2022-11-21T14:39:35.246Z,992.14
2022-11-21T14:40:01.368Z,992.13
2022-11-21T14:41:55.504Z,992.10
2022-11-21T14:42:55.469Z,992.09
2022-11-21T14:44:49.528Z,992.05
2022-11-21T14:45:49.524Z,991.96
2022-11-21T14:47:43.628Z,991.80
2022-11-21T14:48:43.608Z,991.70
2022-11-21T14:50:37.701Z,991.61
2022-11-21T14:51:37.682Z,991.64
2022-11-21T14:53:31.728Z,991.56
2022-11-21T14:54:32.063Z,991.45
2022-11-21T14:56:25.931Z,991.45
2022-11-21T14:57:25.920Z,991.43
2022-11-21T14:59:20.086Z,991.39
2022-11-21T15:00:51.225Z,991.33
2022-11-21T15:02:14.364Z,991.33
2022-11-21T15:03:14.376Z,991.28
2022-11-21T15:05:08.431Z,991.19
2022-11-21T15:06:08.817Z,991.18
2022-11-21T15:08:32.074Z,991.11
2022-11-21T15:10:19.328Z,991.07
2022-11-21T15:10:56.804Z,990.97
2022-11-21T15:11:56.781Z,990.92
2022-11-21T15:14:14.277Z,990.86
2022-11-21T15:14:50.849Z,990.81
2022-11-21T15:16:44.994Z,990.77
2022-11-21T15:19:39.045Z,990.72
2022-11-21T15:20:39.040Z,990.73
2022-11-21T15:22:34.082Z,990.67
2022-11-21T15:23:34.062Z,990.63
2022-11-21T15:25:28.198Z,990.62
2022-11-21T15:26:28.162Z,990.61
2022-11-21T15:28:22.281Z,990.58
2022-11-21T15:29:22.281Z,990.61
2022-11-21T15:31:16.010Z,990.52
2022-11-21T15:32:16.961Z,990.51
2022-11-21T15:34:34.356Z,990.51
2022-11-21T15:35:10.114Z,990.50
2022-11-21T15:37:04.219Z,990.52
2022-11-21T15:38:04.198Z,990.50
2022-11-21T15:39:58.266Z,990.50
2022-11-21T15:40:59.156Z,990.47
2022-11-21T15:42:52.391Z,990.45
2022-11-21T15:43:52.375Z,990.36
2022-11-21T15:45:47.003Z,990.26
2022-11-21T15:46:47.119Z,990.21
2022-11-21T15:48:40.676Z,990.15
2022-11-21T15:49:40.662Z,990.17
2022-11-21T15:52:05.593Z,990.14
2022-11-21T15:52:34.728Z,990.09
2022-11-21T15:54:29.448Z,990.04
2022-11-21T15:55:28.933Z,990.06
2022-11-21T15:57:13.407Z,990.75
2022-11-21T15:57:23.144Z,990.04
2022-11-21T15:58:23.112Z,990.03
2022-11-21T16:00:18.245Z,989.95
2022-11-21T16:01:18.260Z,989.97
2022-11-21T16:03:12.375Z,989.86
2022-11-21T16:04:12.355Z,989.92
2022-11-21T16:06:06.474Z,989.91
2022-11-21T16:07:06.490Z,989.87
2022-11-21T16:09:00.615Z,989.94
2022-11-21T16:10:00.601Z,989.90
2022-11-21T16:11:54.697Z,989.90
2022-11-21T16:12:54.659Z,989.85
2022-11-21T16:14:48.835Z,989.77
2022-11-21T16:15:48.822Z,989.73
2022-11-21T16:17:42.898Z,989.82
2022-11-21T16:18:42.875Z,989.76
2022-11-21T16:20:36.922Z,989.79
2022-11-21T16:21:36.906Z,989.77
2022-11-21T16:23:32.064Z,989.79
2022-11-21T16:24:32.050Z,989.80
2022-11-21T16:26:26.151Z,989.81
2022-11-21T16:27:26.130Z,989.78
2022-11-21T16:29:20.222Z,989.69
2022-11-21T16:30:20.207Z,989.65
2022-11-21T16:32:14.406Z,989.59
2022-11-21T16:33:14.383Z,989.61
2022-11-21T16:35:08.486Z,989.53
2022-11-21T16:36:08.472Z,989.51
2022-11-21T16:38:02.735Z,989.52
2022-11-21T16:39:08.679Z,989.47
2022-11-21T16:40:56.795Z,989.42
2022-11-21T16:41:56.784Z,989.41
2022-11-21T16:43:50.843Z,989.33
2022-11-21T16:44:50.822Z,989.36
2022-11-21T16:46:45.007Z,989.28
2022-11-21T16:47:48.753Z,989.29
2022-11-21T16:49:39.000Z,989.24
2022-11-21T16:50:38.987Z,989.23
2022-11-21T16:52:33.064Z,989.19
2022-11-21T16:53:33.043Z,989.16
2022-11-21T16:55:27.074Z,989.01
2022-11-21T16:56:27.091Z,989.03
2022-11-21T16:58:21.125Z,988.89
2022-11-21T16:59:21.099Z,988.82
2022-11-21T17:01:15.215Z,988.66
2022-11-21T17:02:15.134Z,988.67
2022-11-21T17:04:14.084Z,988.69
2022-11-21T17:05:09.239Z,988.72
2022-11-21T17:07:03.400Z,988.59
2022-11-21T17:08:03.327Z,988.48
2022-11-21T17:09:57.397Z,988.34
2022-11-21T17:10:57.382Z,988.33
2022-11-21T17:12:51.595Z,988.34
2022-11-21T17:13:51.572Z,988.25
2022-11-21T17:15:46.967Z,988.37
2022-11-21T17:16:45.636Z,988.39
2022-11-21T17:18:39.889Z,988.45
2022-11-21T17:19:39.870Z,988.48
2022-11-21T17:21:33.966Z,988.47
2022-11-21T17:22:33.948Z,988.52
2022-11-21T17:24:28.458Z,988.39
2022-11-21T17:25:28.044Z,988.39
2022-11-21T17:27:24.147Z,988.41
2022-11-21T17:28:22.096Z,988.38
2022-11-21T17:30:16.165Z,988.36
2022-11-21T17:31:16.154Z,988.40
2022-11-21T17:33:10.252Z,988.43
2022-11-21T17:34:10.231Z,988.53
2022-11-21T17:36:04.039Z,988.52
2022-11-21T17:37:04.025Z,988.55
2022-11-21T17:38:58.134Z,988.59
2022-11-21T17:39:58.109Z,988.65
2022-11-21T17:41:52.172Z,988.74
2022-11-21T17:42:52.161Z,988.78
2022-11-21T17:44:47.069Z,988.69
2022-11-21T17:45:47.031Z,988.62
2022-11-21T17:47:40.454Z,988.56
2022-11-21T17:48:40.430Z,988.47
2022-11-21T17:50:34.488Z,988.46
2022-11-21T17:51:34.600Z,988.46
2022-11-21T17:53:28.570Z,988.44
2022-11-21T17:54:28.819Z,988.45
2022-11-21T17:56:22.624Z,988.50
2022-11-21T17:57:22.597Z,988.50
2022-11-21T17:59:16.332Z,988.53
2022-11-21T18:00:16.311Z,988.57
2022-11-21T18:02:10.562Z,988.54
2022-11-21T18:03:10.350Z,988.52
2022-11-21T18:05:04.478Z,988.57
2022-11-21T18:06:04.463Z,988.63
2022-11-21T18:07:59.759Z,988.68
2022-11-21T18:08:59.306Z,988.69
2022-11-21T18:10:20.364Z,988.72